Shao Shan 5 — VRKO9 — position and weather

sailwx.info

Track history (hours):
 
Tides and Currents Weather Stations Pressure Air Temp Water Temp Dewpoint Dewpoint Depression Visibility Wind Speed Wind Dir Waves Ship Positions

Shao Shan 5

Last reported at 2017-Dec-10 19:01 UTC. Time now 2017-Dec-16 09:12 UTC.
Position N 01°15' E 104°06'.

Length 225 m; draft 13.6 m.

Type: Cargo ship. MMSI: 477325700.

Date/timePositionNaut miles runAvg speedWind from/ knotsBaromVisibWave heightAir tempDewpointWater temp
2017-Dec-10 19:01N 01°15' E 104°06'110.8
2017-Dec-10 18:55N 01°15' E 104°05'410.3
2017-Dec-10 18:30N 01°15' E 104°00'3 5.5
2017-Dec-10 18:00N 01°16' E 103°58'1 2.2
2017-Dec-10 17:25N 01°17' E 103°57'0 0.1
2017-Dec-10 16:42N 01°17' E 103°57'0 0.0
2017-Dec-10 16:30N 01°17' E 103°57'0 0.0
2017-Dec-10 12:18N 01°17' E 103°57'0 0.0
2017-Dec-10 11:48N 01°17' E 103°57'0 0.0
2017-Dec-10 11:15N 01°17' E 103°57'0 0.2
2017-Dec-10 11:00N 01°17' E 103°57'0 0.1
2017-Dec-10 10:30N 01°17' E 103°57'0 0.1
2017-Dec-10 09:54N 01°17' E 103°57'0 0.1
2017-Dec-10 09:12N 01°17' E 103°57'0 0.2
2017-Dec-10 08:15N 01°17' E 103°57'0 0.2
2017-Dec-10 07:54N 01°17' E 103°57'0 0.3
2017-Dec-10 07:30N 01°17' E 103°57'0 0.0
2017-Dec-10 07:00N 01°17' E 103°57'0 0.0
2017-Dec-10 06:24N 01°17' E 103°57'0 0.0
2017-Dec-10 06:00N 01°17' E 103°57'0 0.0
2017-Dec-10 05:27N 01°17' E 103°57'0 0.0
2017-Dec-10 05:00N 01°17' E 103°57'0 0.0
2017-Dec-10 03:57N 01°17' E 103°57'0 0.0
2017-Dec-10 03:27N 01°17' E 103°57'0 0.0
2017-Dec-10 02:59N 01°17' E 103°57'0 0.1
2017-Dec-10 02:29N 01°17' E 103°57'2 3.3
2017-Dec-10 02:00N 01°15' E 103°57'2 3.1
2017-Dec-10 01:30N 01°14' E 103°57'3 5.9
2017-Dec-10 01:00N 01°13' E 103°54'4 7.2
2017-Dec-10 00:30N 01°11' E 103°51'4 7.6
2017-Dec-10 00:00N 01°09' E 103°48'4 7.4
2017-Dec-09 23:30N 01°07' E 103°45'4 7.7
2017-Dec-09 23:00N 01°04' E 103°42'4 8.0
2017-Dec-09 22:30N 01°03' E 103°38'5 9.5
2017-Dec-09 21:58N 01°06' E 103°34'610.1
2017-Dec-09 21:20N 01°09' E 103°28'  
Track history (hours):
 
Tides and Currents Weather Stations Pressure Air Temp Water Temp Dewpoint Dewpoint Depression Visibility Wind Speed Wind Dir Waves Ship Positions

Shao Shan 5

Last reported at 2017-Dec-10 19:01 UTC. Time now 2017-Dec-16 09:12 UTC.
Position N 01°15' E 104°06'.

Length 225 m; draft 13.6 m.

Type: Cargo ship. MMSI: 477325700.

Date/timePositionNaut miles runAvg speedWind from/ knotsBaromVisibWave heightAir tempDewpointWater temp
2017-Dec-10 19:01N 01°15' E 104°06'110.8
2017-Dec-10 18:55N 01°15' E 104°05'410.3
2017-Dec-10 18:30N 01°15' E 104°00'3 5.5
2017-Dec-10 18:00N 01°16' E 103°58'1 2.2
2017-Dec-10 17:25N 01°17' E 103°57'0 0.1
2017-Dec-10 16:42N 01°17' E 103°57'0 0.0
2017-Dec-10 16:30N 01°17' E 103°57'0 0.0
2017-Dec-10 12:18N 01°17' E 103°57'0 0.0
2017-Dec-10 11:48N 01°17' E 103°57'0 0.0
2017-Dec-10 11:15N 01°17' E 103°57'0 0.2
2017-Dec-10 11:00N 01°17' E 103°57'0 0.1
2017-Dec-10 10:30N 01°17' E 103°57'0 0.1
2017-Dec-10 09:54N 01°17' E 103°57'0 0.1
2017-Dec-10 09:12N 01°17' E 103°57'0 0.2
2017-Dec-10 08:15N 01°17' E 103°57'0 0.2
2017-Dec-10 07:54N 01°17' E 103°57'0 0.3
2017-Dec-10 07:30N 01°17' E 103°57'0 0.0
2017-Dec-10 07:00N 01°17' E 103°57'0 0.0
2017-Dec-10 06:24N 01°17' E 103°57'0 0.0
2017-Dec-10 06:00N 01°17' E 103°57'0 0.0
2017-Dec-10 05:27N 01°17' E 103°57'0 0.0
2017-Dec-10 05:00N 01°17' E 103°57'0 0.0
2017-Dec-10 03:57N 01°17' E 103°57'0 0.0
2017-Dec-10 03:27N 01°17' E 103°57'0 0.0
2017-Dec-10 02:59N 01°17' E 103°57'0 0.1
2017-Dec-10 02:29N 01°17' E 103°57'2 3.3
2017-Dec-10 02:00N 01°15' E 103°57'2 3.1
2017-Dec-10 01:30N 01°14' E 103°57'3 5.9
2017-Dec-10 01:00N 01°13' E 103°54'4 7.2
2017-Dec-10 00:30N 01°11' E 103°51'4 7.6
2017-Dec-10 00:00N 01°09' E 103°48'4 7.4
2017-Dec-09 23:30N 01°07' E 103°45'4 7.7
2017-Dec-09 23:00N 01°04' E 103°42'4 8.0
2017-Dec-09 22:30N 01°03' E 103°38'5 9.5
2017-Dec-09 21:58N 01°06' E 103°34'610.1
2017-Dec-09 21:20N 01°09' E 103°28'  

Dump ship's entire track history